sensor_id;sensor_type;location;lat;lon;timestamp;pressure;altitude;pressure_sealevel;temperature;humidity
57250;BME280;43102;52.014;-0.680;2023-04-26T00:00:00;101052;;;7.69;55.77
57250;BME280;43102;52.014;-0.680;2023-04-26T00:01:00;101052;;;7.69;55.77
57250;BME280;43102;52.014;-0.680;2023-04-26T00:02:00;101054;;;7.81;55.67
57250;BME280;43102;52.014;-0.680;2023-04-26T00:03:00;101054;;;7.81;55.67
57250;BME280;43102;52.014;-0.680;2023-04-26T00:04:00;101054;;;7.81;55.67
57250;BME280;43102;52.014;-0.680;2023-04-26T00:05:00;101054;;;7.81;55.67
57250;BME280;43102;52.014;-0.680;2023-04-26T00:06:00;101054;;;7.81;55.67
57250;BME280;43102;52.014;-0.680;2023-04-26T00:07:00;101046;;;7.88;55.64
57250;BME280;43102;52.014;-0.680;2023-04-26T00:08:00;101046;;;7.88;55.64
57250;BME280;43102;52.014;-0.680;2023-04-26T00:09:00;101046;;;7.88;55.64
57250;BME280;43102;52.014;-0.680;2023-04-26T00:10:00;101046;;;7.88;55.64
57250;BME280;43102;52.014;-0.680;2023-04-26T00:11:00;101046;;;7.88;55.64
57250;BME280;43102;52.014;-0.680;2023-04-26T00:12:00;101039;;;7.93;55.62
57250;BME280;43102;52.014;-0.680;2023-04-26T00:13:00;101039;;;7.93;55.62
57250;BME280;43102;52.014;-0.680;2023-04-26T00:14:00;101039;;;7.93;55.62
57250;BME280;43102;52.014;-0.680;2023-04-26T00:15:00;101039;;;7.93;55.62
57250;BME280;43102;52.014;-0.680;2023-04-26T00:16:00;101039;;;7.93;55.62
57250;BME280;43102;52.014;-0.680;2023-04-26T00:17:00;101037;;;7.94;55.65
57250;BME280;43102;52.014;-0.680;2023-04-26T00:18:00;101037;;;7.94;55.65
57250;BME280;43102;52.014;-0.680;2023-04-26T00:19:00;101037;;;7.94;55.65
57250;BME280;43102;52.014;-0.680;2023-04-26T00:20:00;101037;;;7.94;55.65
57250;BME280;43102;52.014;-0.680;2023-04-26T00:21:00;101037;;;7.94;55.65
57250;BME280;43102;52.014;-0.680;2023-04-26T00:22:00;101035;;;7.92;55.93
57250;BME280;43102;52.014;-0.680;2023-04-26T00:23:00;101035;;;7.92;55.93
57250;BME280;43102;52.014;-0.680;2023-04-26T00:24:00;101035;;;7.92;55.93
57250;BME280;43102;52.014;-0.680;2023-04-26T00:25:00;101035;;;7.92;55.93
57250;BME280;43102;52.014;-0.680;2023-04-26T00:26:00;101035;;;7.92;55.93
57250;BME280;43102;52.014;-0.680;2023-04-26T00:27:00;101038;;;7.91;56.07
57250;BME280;43102;52.014;-0.680;2023-04-26T00:28:00;101038;;;7.91;56.07
57250;BME280;43102;52.014;-0.680;2023-04-26T00:29:00;101038;;;7.91;56.07
57250;BME280;43102;52.014;-0.680;2023-04-26T00:30:00;101038;;;7.91;56.07
57250;BME280;43102;52.014;-0.680;2023-04-26T00:31:00;101038;;;7.91;56.07
57250;BME280;43102;52.014;-0.680;2023-04-26T00:32:00;101031;;;7.87;56.15
57250;BME280;43102;52.014;-0.680;2023-04-26T00:33:00;101031;;;7.87;56.15
57250;BME280;43102;52.014;-0.680;2023-04-26T00:34:00;101031;;;7.87;56.15
57250;BME280;43102;52.014;-0.680;2023-04-26T00:35:01;101031;;;7.87;56.15
57250;BME280;43102;52.014;-0.680;2023-04-26T00:36:00;101031;;;7.87;56.15
57250;BME280;43102;52.014;-0.680;2023-04-26T00:37:00;101027;;;7.78;56.44
57250;BME280;43102;52.014;-0.680;2023-04-26T00:38:00;101027;;;7.78;56.44
57250;BME280;43102;52.014;-0.680;2023-04-26T00:39:00;101027;;;7.78;56.44
57250;BME280;43102;52.014;-0.680;2023-04-26T00:40:00;101027;;;7.78;56.44
57250;BME280;43102;52.014;-0.680;2023-04-26T00:41:00;101027;;;7.78;56.44
57250;BME280;43102;52.014;-0.680;2023-04-26T00:42:00;101026;;;7.47;56.83
57250;BME280;43102;52.014;-0.680;2023-04-26T00:43:00;101026;;;7.47;56.83
57250;BME280;43102;52.014;-0.680;2023-04-26T00:44:00;101026;;;7.47;56.83
57250;BME280;43102;52.014;-0.680;2023-04-26T00:45:00;101026;;;7.47;56.83
57250;BME280;43102;52.014;-0.680;2023-04-26T00:46:00;101026;;;7.47;56.83
57250;BME280;43102;52.014;-0.680;2023-04-26T00:47:00;101024;;;7.36;57.20
57250;BME280;43102;52.014;-0.680;2023-04-26T00:48:01;101024;;;7.36;57.20
57250;BME280;43102;52.014;-0.680;2023-04-26T00:49:00;101024;;;7.36;57.20
57250;BME280;43102;52.014;-0.680;2023-04-26T00:50:00;101024;;;7.36;57.20
57250;BME280;43102;52.014;-0.680;2023-04-26T00:51:00;101024;;;7.36;57.20
57250;BME280;43102;52.014;-0.680;2023-04-26T00:52:00;101017;;;7.28;57.57
57250;BME280;43102;52.014;-0.680;2023-04-26T00:53:00;101017;;;7.28;57.57
57250;BME280;43102;52.014;-0.680;2023-04-26T00:54:00;101017;;;7.28;57.57
57250;BME280;43102;52.014;-0.680;2023-04-26T00:55:00;101017;;;7.28;57.57
57250;BME280;43102;52.014;-0.680;2023-04-26T00:56:00;101017;;;7.28;57.57
57250;BME280;43102;52.014;-0.680;2023-04-26T00:57:00;101022;;;7.19;57.94
57250;BME280;43102;52.014;-0.680;2023-04-26T00:58:00;101022;;;7.19;57.94
57250;BME280;43102;52.014;-0.680;2023-04-26T00:59:00;101022;;;7.19;57.94
57250;BME280;43102;52.014;-0.680;2023-04-26T01:00:00;101022;;;7.19;57.94
57250;BME280;43102;52.014;-0.680;2023-04-26T01:01:00;101022;;;7.19;57.94
57250;BME280;43102;52.014;-0.680;2023-04-26T01:02:01;101023;;;7.13;58.15
57250;BME280;43102;52.014;-0.680;2023-04-26T01:03:00;101023;;;7.13;58.15
57250;BME280;43102;52.014;-0.680;2023-04-26T01:04:00;101023;;;7.13;58.15
57250;BME280;43102;52.014;-0.680;2023-04-26T01:05:00;101023;;;7.13;58.15
57250;BME280;43102;52.014;-0.680;2023-04-26T01:06:00;101023;;;7.13;58.15
57250;BME280;43102;52.014;-0.680;2023-04-26T01:07:00;101016;;;7.03;58.66
57250;BME280;43102;52.014;-0.680;2023-04-26T01:08:00;101016;;;7.03;58.66
57250;BME280;43102;52.014;-0.680;2023-04-26T01:09:01;101016;;;7.03;58.66
57250;BME280;43102;52.014;-0.680;2023-04-26T01:10:00;101016;;;7.03;58.66
57250;BME280;43102;52.014;-0.680;2023-04-26T01:11:00;101016;;;7.03;58.66
57250;BME280;43102;52.014;-0.680;2023-04-26T01:12:00;101012;;;6.90;59.31
57250;BME280;43102;52.014;-0.680;2023-04-26T01:13:00;101012;;;6.90;59.31
57250;BME280;43102;52.014;-0.680;2023-04-26T01:14:00;101012;;;6.90;59.31
57250;BME280;43102;52.014;-0.680;2023-04-26T01:15:00;101012;;;6.90;59.31
57250;BME280;43102;52.014;-0.680;2023-04-26T01:16:00;101012;;;6.90;59.31
57250;BME280;43102;52.014;-0.680;2023-04-26T01:17:00;101015;;;6.82;59.53
57250;BME280;43102;52.014;-0.680;2023-04-26T01:18:00;101015;;;6.82;59.53
57250;BME280;43102;52.014;-0.680;2023-04-26T01:19:08;101015;;;6.82;59.53
57250;BME280;43102;52.014;-0.680;2023-04-26T01:20:00;101015;;;6.82;59.53
57250;BME280;43102;52.014;-0.680;2023-04-26T01:21:00;101015;;;6.82;59.53
57250;BME280;43102;52.014;-0.680;2023-04-26T01:22:00;101010;;;6.75;59.80
57250;BME280;43102;52.014;-0.680;2023-04-26T01:23:00;101010;;;6.75;59.80
57250;BME280;43102;52.014;-0.680;2023-04-26T01:24:00;101010;;;6.75;59.80
57250;BME280;43102;52.014;-0.680;2023-04-26T01:25:00;101010;;;6.75;59.80
57250;BME280;43102;52.014;-0.680;2023-04-26T01:26:00;101010;;;6.75;59.80
57250;BME280;43102;52.014;-0.680;2023-04-26T01:27:00;101007;;;6.74;60.01
57250;BME280;43102;52.014;-0.680;2023-04-26T01:28:00;101007;;;6.74;60.01
57250;BME280;43102;52.014;-0.680;2023-04-26T01:29:00;101007;;;6.74;60.01
57250;BME280;43102;52.014;-0.680;2023-04-26T01:30:00;101007;;;6.74;60.01
57250;BME280;43102;52.014;-0.680;2023-04-26T01:31:00;101007;;;6.74;60.01
57250;BME280;43102;52.014;-0.680;2023-04-26T01:32:00;101011;;;6.74;60.20
57250;BME280;43102;52.014;-0.680;2023-04-26T01:33:00;101011;;;6.74;60.20
57250;BME280;43102;52.014;-0.680;2023-04-26T01:34:00;101011;;;6.74;60.20
57250;BME280;43102;52.014;-0.680;2023-04-26T01:35:00;101011;;;6.74;60.20
57250;BME280;43102;52.014;-0.680;2023-04-26T01:36:00;101011;;;6.74;60.20
57250;BME280;43102;52.014;-0.680;2023-04-26T01:37:00;101010;;;6.75;60.41
57250;BME280;43102;52.014;-0.680;2023-04-26T01:38:00;101010;;;6.75;60.41
57250;BME280;43102;52.014;-0.680;2023-04-26T01:39:00;101010;;;6.75;60.41
57250;BME280;43102;52.014;-0.680;2023-04-26T01:40:00;101010;;;6.75;60.41
57250;BME280;43102;52.014;-0.680;2023-04-26T01:41:00;101010;;;6.75;60.41
57250;BME280;43102;52.014;-0.680;2023-04-26T01:42:00;101009;;;6.68;60.51
57250;BME280;43102;52.014;-0.680;2023-04-26T01:43:00;101009;;;6.68;60.51
57250;BME280;43102;52.014;-0.680;2023-04-26T01:44:00;101009;;;6.68;60.51
57250;BME280;43102;52.014;-0.680;2023-04-26T01:45:00;101009;;;6.68;60.51
57250;BME280;43102;52.014;-0.680;2023-04-26T01:46:00;101009;;;6.68;60.51
57250;BME280;43102;52.014;-0.680;2023-04-26T01:47:00;101005;;;6.60;60.70
57250;BME280;43102;52.014;-0.680;2023-04-26T01:48:00;101005;;;6.60;60.70
57250;BME280;43102;52.014;-0.680;2023-04-26T01:49:00;101005;;;6.60;60.70
57250;BME280;43102;52.014;-0.680;2023-04-26T01:50:00;101005;;;6.60;60.70
57250;BME280;43102;52.014;-0.680;2023-04-26T01:51:00;101005;;;6.60;60.70
57250;BME280;43102;52.014;-0.680;2023-04-26T01:52:00;100996;;;6.49;61.01
57250;BME280;43102;52.014;-0.680;2023-04-26T01:53:00;100996;;;6.49;61.01
57250;BME280;43102;52.014;-0.680;2023-04-26T01:54:00;100996;;;6.49;61.01
57250;BME280;43102;52.014;-0.680;2023-04-26T01:55:00;100996;;;6.49;61.01
57250;BME280;43102;52.014;-0.680;2023-04-26T01:56:00;100996;;;6.49;61.01
57250;BME280;43102;52.014;-0.680;2023-04-26T01:57:00;100996;;;6.49;61.10
57250;BME280;43102;52.014;-0.680;2023-04-26T01:58:00;100996;;;6.49;61.10
57250;BME280;43102;52.014;-0.680;2023-04-26T01:59:00;100996;;;6.49;61.10
57250;BME280;43102;52.014;-0.680;2023-04-26T02:00:00;100996;;;6.49;61.10
57250;BME280;43102;52.014;-0.680;2023-04-26T02:01:04;100996;;;6.49;61.10
57250;BME280;43102;52.014;-0.680;2023-04-26T02:02:00;100994;;;6.41;61.33
57250;BME280;43102;52.014;-0.680;2023-04-26T02:03:00;100994;;;6.41;61.33
57250;BME280;43102;52.014;-0.680;2023-04-26T02:04:00;100994;;;6.41;61.33
57250;BME280;43102;52.014;-0.680;2023-04-26T02:05:00;100994;;;6.41;61.33
57250;BME280;43102;52.014;-0.680;2023-04-26T02:06:00;100994;;;6.41;61.33
57250;BME280;43102;52.014;-0.680;2023-04-26T02:07:00;100998;;;6.37;61.41
57250;BME280;43102;52.014;-0.680;2023-04-26T02:08:00;100998;;;6.37;61.41
57250;BME280;43102;52.014;-0.680;2023-04-26T02:09:00;100998;;;6.37;61.41
57250;BME280;43102;52.014;-0.680;2023-04-26T02:10:00;100998;;;6.37;61.41
57250;BME280;43102;52.014;-0.680;2023-04-26T02:11:00;100998;;;6.37;61.41
57250;BME280;43102;52.014;-0.680;2023-04-26T02:12:00;101004;;;6.35;61.62
57250;BME280;43102;52.014;-0.680;2023-04-26T02:13:00;101004;;;6.35;61.62
57250;BME280;43102;52.014;-0.680;2023-04-26T02:14:00;101004;;;6.35;61.62
57250;BME280;43102;52.014;-0.680;2023-04-26T02:15:00;101004;;;6.35;61.62
57250;BME280;43102;52.014;-0.680;2023-04-26T02:16:00;101004;;;6.35;61.62
57250;BME280;43102;52.014;-0.680;2023-04-26T02:17:00;101002;;;6.27;61.79
57250;BME280;43102;52.014;-0.680;2023-04-26T02:18:00;101002;;;6.27;61.79
57250;BME280;43102;52.014;-0.680;2023-04-26T02:19:00;101002;;;6.27;61.79
57250;BME280;43102;52.014;-0.680;2023-04-26T02:20:00;101002;;;6.27;61.79
57250;BME280;43102;52.014;-0.680;2023-04-26T02:21:00;101002;;;6.27;61.79
57250;BME280;43102;52.014;-0.680;2023-04-26T02:22:00;101004;;;6.15;62.28
57250;BME280;43102;52.014;-0.680;2023-04-26T02:23:00;101004;;;6.15;62.28
57250;BME280;43102;52.014;-0.680;2023-04-26T02:24:00;101004;;;6.15;62.28
57250;BME280;43102;52.014;-0.680;2023-04-26T02:25:00;101004;;;6.15;62.28
57250;BME280;43102;52.014;-0.680;2023-04-26T02:26:00;101004;;;6.15;62.28
57250;BME280;43102;52.014;-0.680;2023-04-26T02:27:00;101004;;;6.20;62.36
57250;BME280;43102;52.014;-0.680;2023-04-26T02:28:00;101004;;;6.20;62.36
57250;BME280;43102;52.014;-0.680;2023-04-26T02:29:00;101004;;;6.20;62.36
57250;BME280;43102;52.014;-0.680;2023-04-26T02:30:00;101004;;;6.20;62.36
57250;BME280;43102;52.014;-0.680;2023-04-26T02:31:01;101004;;;6.20;62.36
57250;BME280;43102;52.014;-0.680;2023-04-26T02:32:00;101004;;;6.24;62.27
57250;BME280;43102;52.014;-0.680;2023-04-26T02:33:00;101004;;;6.24;62.27
57250;BME280;43102;52.014;-0.680;2023-04-26T02:34:00;101004;;;6.24;62.27
57250;BME280;43102;52.014;-0.680;2023-04-26T02:35:00;101004;;;6.24;62.27
57250;BME280;43102;52.014;-0.680;2023-04-26T02:36:01;101004;;;6.24;62.27
57250;BME280;43102;52.014;-0.680;2023-04-26T02:37:00;101000;;;6.35;62.19
57250;BME280;43102;52.014;-0.680;2023-04-26T02:38:00;101000;;;6.35;62.19
57250;BME280;43102;52.014;-0.680;2023-04-26T02:39:00;101000;;;6.35;62.19
57250;BME280;43102;52.014;-0.680;2023-04-26T02:40:00;101000;;;6.35;62.19
57250;BME280;43102;52.014;-0.680;2023-04-26T02:41:00;101000;;;6.35;62.19
57250;BME280;43102;52.014;-0.680;2023-04-26T02:42:00;100992;;;6.40;62.13
57250;BME280;43102;52.014;-0.680;2023-04-26T02:43:00;100992;;;6.40;62.13
57250;BME280;43102;52.014;-0.680;2023-04-26T02:44:00;100992;;;6.40;62.13
57250;BME280;43102;52.014;-0.680;2023-04-26T02:45:00;100992;;;6.40;62.13
57250;BME280;43102;52.014;-0.680;2023-04-26T02:46:00;100992;;;6.40;62.13
57250;BME280;43102;52.014;-0.680;2023-04-26T02:47:00;100996;;;6.39;62.04
57250;BME280;43102;52.014;-0.680;2023-04-26T02:48:00;100996;;;6.39;62.04
57250;BME280;43102;52.014;-0.680;2023-04-26T02:49:00;100996;;;6.39;62.04
57250;BME280;43102;52.014;-0.680;2023-04-26T02:50:00;100996;;;6.39;62.04
57250;BME280;43102;52.014;-0.680;2023-04-26T02:51:00;100996;;;6.39;62.04
57250;BME280;43102;52.014;-0.680;2023-04-26T02:52:00;100993;;;6.31;62.15
57250;BME280;43102;52.014;-0.680;2023-04-26T02:53:00;100993;;;6.31;62.15
57250;BME280;43102;52.014;-0.680;2023-04-26T02:54:00;100993;;;6.31;62.15
57250;BME280;43102;52.014;-0.680;2023-04-26T02:55:00;100993;;;6.31;62.15
57250;BME280;43102;52.014;-0.680;2023-04-26T02:56:00;100993;;;6.31;62.15
57250;BME280;43102;52.014;-0.680;2023-04-26T02:57:00;100995;;;6.30;62.15
57250;BME280;43102;52.014;-0.680;2023-04-26T02:58:00;100995;;;6.30;62.15
57250;BME280;43102;52.014;-0.680;2023-04-26T02:59:00;100995;;;6.30;62.15
57250;BME280;43102;52.014;-0.680;2023-04-26T03:00:00;100995;;;6.30;62.15
57250;BME280;43102;52.014;-0.680;2023-04-26T03:01:00;100995;;;6.30;62.15
57250;BME280;43102;52.014;-0.680;2023-04-26T03:02:00;100995;;;6.28;62.06
57250;BME280;43102;52.014;-0.680;2023-04-26T03:03:00;100995;;;6.28;62.06
57250;BME280;43102;52.014;-0.680;2023-04-26T03:04:00;100995;;;6.28;62.06
57250;BME280;43102;52.014;-0.680;2023-04-26T03:05:00;100995;;;6.28;62.06
57250;BME280;43102;52.014;-0.680;2023-04-26T03:06:00;100995;;;6.28;62.06
57250;BME280;43102;52.014;-0.680;2023-04-26T03:07:01;100983;;;6.21;62.09
57250;BME280;43102;52.014;-0.680;2023-04-26T03:08:00;100983;;;6.21;62.09
57250;BME280;43102;52.014;-0.680;2023-04-26T03:09:00;100983;;;6.21;62.09
57250;BME280;43102;52.014;-0.680;2023-04-26T03:10:00;100983;;;6.21;62.09
57250;BME280;43102;52.014;-0.680;2023-04-26T03:11:00;100983;;;6.21;62.09
57250;BME280;43102;52.014;-0.680;2023-04-26T03:12:00;100971;;;6.16;61.99
57250;BME280;43102;52.014;-0.680;2023-04-26T03:13:00;100971;;;6.16;61.99
57250;BME280;43102;52.014;-0.680;2023-04-26T03:14:00;100971;;;6.16;61.99
57250;BME280;43102;52.014;-0.680;2023-04-26T03:15:00;100971;;;6.16;61.99
57250;BME280;43102;52.014;-0.680;2023-04-26T03:16:00;100971;;;6.16;61.99
57250;BME280;43102;52.014;-0.680;2023-04-26T03:17:00;100983;;;6.21;62.32
57250;BME280;43102;52.014;-0.680;2023-04-26T03:18:00;100983;;;6.21;62.32
57250;BME280;43102;52.014;-0.680;2023-04-26T03:19:00;100983;;;6.21;62.32
57250;BME280;43102;52.014;-0.680;2023-04-26T03:20:00;100983;;;6.21;62.32
57250;BME280;43102;52.014;-0.680;2023-04-26T03:21:00;100983;;;6.21;62.32
57250;BME280;43102;52.014;-0.680;2023-04-26T03:22:00;100979;;;6.27;62.93
57250;BME280;43102;52.014;-0.680;2023-04-26T03:23:00;100979;;;6.27;62.93
57250;BME280;43102;52.014;-0.680;2023-04-26T03:24:00;100979;;;6.27;62.93
57250;BME280;43102;52.014;-0.680;2023-04-26T03:25:00;100979;;;6.27;62.93
57250;BME280;43102;52.014;-0.680;2023-04-26T03:26:00;100979;;;6.27;62.93
57250;BME280;43102;52.014;-0.680;2023-04-26T03:27:00;100978;;;6.34;63.04
57250;BME280;43102;52.014;-0.680;2023-04-26T03:28:00;100978;;;6.34;63.04
57250;BME280;43102;52.014;-0.680;2023-04-26T03:29:00;100978;;;6.34;63.04
57250;BME280;43102;52.014;-0.680;2023-04-26T03:30:00;100978;;;6.34;63.04
57250;BME280;43102;52.014;-0.680;2023-04-26T03:31:00;100978;;;6.34;63.04
57250;BME280;43102;52.014;-0.680;2023-04-26T03:32:00;100975;;;6.37;63.00
57250;BME280;43102;52.014;-0.680;2023-04-26T03:33:00;100975;;;6.37;63.00
57250;BME280;43102;52.014;-0.680;2023-04-26T03:34:00;100975;;;6.37;63.00
57250;BME280;43102;52.014;-0.680;2023-04-26T03:35:00;100975;;;6.37;63.00
57250;BME280;43102;52.014;-0.680;2023-04-26T03:36:00;100975;;;6.37;63.00
57250;BME280;43102;52.014;-0.680;2023-04-26T03:37:00;100965;;;6.39;62.92
57250;BME280;43102;52.014;-0.680;2023-04-26T03:38:00;100965;;;6.39;62.92
57250;BME280;43102;52.014;-0.680;2023-04-26T03:39:00;100965;;;6.39;62.92
57250;BME280;43102;52.014;-0.680;2023-04-26T03:40:00;100965;;;6.39;62.92
57250;BME280;43102;52.014;-0.680;2023-04-26T03:41:00;100965;;;6.39;62.92
57250;BME280;43102;52.014;-0.680;2023-04-26T03:42:00;100965;;;6.42;62.96
57250;BME280;43102;52.014;-0.680;2023-04-26T03:43:00;100965;;;6.42;62.96
57250;BME280;43102;52.014;-0.680;2023-04-26T03:44:00;100965;;;6.42;62.96
57250;BME280;43102;52.014;-0.680;2023-04-26T03:45:00;100965;;;6.42;62.96
57250;BME280;43102;52.014;-0.680;2023-04-26T03:46:00;100965;;;6.42;62.96
57250;BME280;43102;52.014;-0.680;2023-04-26T03:47:00;100965;;;6.49;63.30
57250;BME280;43102;52.014;-0.680;2023-04-26T03:48:00;100965;;;6.49;63.30
57250;BME280;43102;52.014;-0.680;2023-04-26T03:49:00;100965;;;6.49;63.30
57250;BME280;43102;52.014;-0.680;2023-04-26T03:50:00;100965;;;6.49;63.30
57250;BME280;43102;52.014;-0.680;2023-04-26T03:51:00;100965;;;6.49;63.30
57250;BME280;43102;52.014;-0.680;2023-04-26T03:52:00;100956;;;6.64;64.00
57250;BME280;43102;52.014;-0.680;2023-04-26T03:53:00;100956;;;6.64;64.00
57250;BME280;43102;52.014;-0.680;2023-04-26T03:54:00;100956;;;6.64;64.00
57250;BME280;43102;52.014;-0.680;2023-04-26T03:55:00;100956;;;6.64;64.00
57250;BME280;43102;52.014;-0.680;2023-04-26T03:56:00;100956;;;6.64;64.00
57250;BME280;43102;52.014;-0.680;2023-04-26T03:57:00;100947;;;6.77;63.70
57250;BME280;43102;52.014;-0.680;2023-04-26T03:58:00;100947;;;6.77;63.70
57250;BME280;43102;52.014;-0.680;2023-04-26T03:59:00;100947;;;6.77;63.70
57250;BME280;43102;52.014;-0.680;2023-04-26T04:00:00;100947;;;6.77;63.70
57250;BME280;43102;52.014;-0.680;2023-04-26T04:01:00;100947;;;6.77;63.70
57250;BME280;43102;52.014;-0.680;2023-04-26T04:02:00;100948;;;6.86;63.88
57250;BME280;43102;52.014;-0.680;2023-04-26T04:03:00;100948;;;6.86;63.88
57250;BME280;43102;52.014;-0.680;2023-04-26T04:04:00;100948;;;6.86;63.88
57250;BME280;43102;52.014;-0.680;2023-04-26T04:05:00;100948;;;6.86;63.88
57250;BME280;43102;52.014;-0.680;2023-04-26T04:06:00;100948;;;6.86;63.88
57250;BME280;43102;52.014;-0.680;2023-04-26T04:07:00;100944;;;6.95;63.51
57250;BME280;43102;52.014;-0.680;2023-04-26T04:08:00;100944;;;6.95;63.51
57250;BME280;43102;52.014;-0.680;2023-04-26T04:09:00;100944;;;6.95;63.51
57250;BME280;43102;52.014;-0.680;2023-04-26T04:10:00;100944;;;6.95;63.51
57250;BME280;43102;52.014;-0.680;2023-04-26T04:11:00;100944;;;6.95;63.51
57250;BME280;43102;52.014;-0.680;2023-04-26T04:12:00;100943;;;7.01;63.42
57250;BME280;43102;52.014;-0.680;2023-04-26T04:13:00;100943;;;7.01;63.42
57250;BME280;43102;52.014;-0.680;2023-04-26T04:14:00;100943;;;7.01;63.42
57250;BME280;43102;52.014;-0.680;2023-04-26T04:15:00;100943;;;7.01;63.42
57250;BME280;43102;52.014;-0.680;2023-04-26T04:16:00;100943;;;7.01;63.42
57250;BME280;43102;52.014;-0.680;2023-04-26T04:17:00;100938;;;7.08;63.38
57250;BME280;43102;52.014;-0.680;2023-04-26T04:18:00;100938;;;7.08;63.38
57250;BME280;43102;52.014;-0.680;2023-04-26T04:19:00;100938;;;7.08;63.38
57250;BME280;43102;52.014;-0.680;2023-04-26T04:20:00;100938;;;7.08;63.38
57250;BME280;43102;52.014;-0.680;2023-04-26T04:21:00;100938;;;7.08;63.38
57250;BME280;43102;52.014;-0.680;2023-04-26T04:22:00;100946;;;7.10;63.60
57250;BME280;43102;52.014;-0.680;2023-04-26T04:23:00;100946;;;7.10;63.60
57250;BME280;43102;52.014;-0.680;2023-04-26T04:24:00;100946;;;7.10;63.60
57250;BME280;43102;52.014;-0.680;2023-04-26T04:25:00;100946;;;7.10;63.60
57250;BME280;43102;52.014;-0.680;2023-04-26T04:26:00;100946;;;7.10;63.60
57250;BME280;43102;52.014;-0.680;2023-04-26T04:27:00;100948;;;7.11;63.35
57250;BME280;43102;52.014;-0.680;2023-04-26T04:28:00;100948;;;7.11;63.35
57250;BME280;43102;52.014;-0.680;2023-04-26T04:29:00;100948;;;7.11;63.35
57250;BME280;43102;52.014;-0.680;2023-04-26T04:30:00;100948;;;7.11;63.35
57250;BME280;43102;52.014;-0.680;2023-04-26T04:31:00;100948;;;7.11;63.35
57250;BME280;43102;52.014;-0.680;2023-04-26T04:32:00;100945;;;7.09;63.24
57250;BME280;43102;52.014;-0.680;2023-04-26T04:33:00;100945;;;7.09;63.24
57250;BME280;43102;52.014;-0.680;2023-04-26T04:34:00;100945;;;7.09;63.24
57250;BME280;43102;52.014;-0.680;2023-04-26T04:35:00;100945;;;7.09;63.24
57250;BME280;43102;52.014;-0.680;2023-04-26T04:36:00;100945;;;7.09;63.24
57250;BME280;43102;52.014;-0.680;2023-04-26T04:37:00;100938;;;7.08;63.28
57250;BME280;43102;52.014;-0.680;2023-04-26T04:38:00;100938;;;7.08;63.28
57250;BME280;43102;52.014;-0.680;2023-04-26T04:39:00;100938;;;7.08;63.28
57250;BME280;43102;52.014;-0.680;2023-04-26T04:40:00;100938;;;7.08;63.28
57250;BME280;43102;52.014;-0.680;2023-04-26T04:41:00;100938;;;7.08;63.28
57250;BME280;43102;52.014;-0.680;2023-04-26T04:42:00;100929;;;7.09;63.15
57250;BME280;43102;52.014;-0.680;2023-04-26T04:43:00;100929;;;7.09;63.15
57250;BME280;43102;52.014;-0.680;2023-04-26T04:44:00;100929;;;7.09;63.15
57250;BME280;43102;52.014;-0.680;2023-04-26T04:45:00;100929;;;7.09;63.15
57250;BME280;43102;52.014;-0.680;2023-04-26T04:46:00;100929;;;7.09;63.15
57250;BME280;43102;52.014;-0.680;2023-04-26T04:47:00;100929;;;7.11;62.97
57250;BME280;43102;52.014;-0.680;2023-04-26T04:48:00;100929;;;7.11;62.97
57250;BME280;43102;52.014;-0.680;2023-04-26T04:49:00;100929;;;7.11;62.97
57250;BME280;43102;52.014;-0.680;2023-04-26T04:50:00;100929;;;7.11;62.97
57250;BME280;43102;52.014;-0.680;2023-04-26T04:51:00;100929;;;7.11;62.97
57250;BME280;43102;52.014;-0.680;2023-04-26T04:52:00;100930;;;7.12;63.34
57250;BME280;43102;52.014;-0.680;2023-04-26T04:53:00;100930;;;7.12;63.34
57250;BME280;43102;52.014;-0.680;2023-04-26T04:54:08;100930;;;7.12;63.34
57250;BME280;43102;52.014;-0.680;2023-04-26T04:55:00;100930;;;7.12;63.34
57250;BME280;43102;52.014;-0.680;2023-04-26T04:56:00;100930;;;7.12;63.34
57250;BME280;43102;52.014;-0.680;2023-04-26T04:57:00;100923;;;7.15;63.21
57250;BME280;43102;52.014;-0.680;2023-04-26T04:58:00;100923;;;7.15;63.21
57250;BME280;43102;52.014;-0.680;2023-04-26T04:59:00;100923;;;7.15;63.21
57250;BME280;43102;52.014;-0.680;2023-04-26T05:00:00;100923;;;7.15;63.21
57250;BME280;43102;52.014;-0.680;2023-04-26T05:01:00;100923;;;7.15;63.21
57250;BME280;43102;52.014;-0.680;2023-04-26T05:02:00;100929;;;7.18;63.46
57250;BME280;43102;52.014;-0.680;2023-04-26T05:03:00;100929;;;7.18;63.46
57250;BME280;43102;52.014;-0.680;2023-04-26T05:04:00;100929;;;7.18;63.46
57250;BME280;43102;52.014;-0.680;2023-04-26T05:05:00;100929;;;7.18;63.46
57250;BME280;43102;52.014;-0.680;2023-04-26T05:06:00;100929;;;7.18;63.46
57250;BME280;43102;52.014;-0.680;2023-04-26T05:07:00;100923;;;7.23;63.42
57250;BME280;43102;52.014;-0.680;2023-04-26T05:08:00;100923;;;7.23;63.42
57250;BME280;43102;52.014;-0.680;2023-04-26T05:09:00;100923;;;7.23;63.42
57250;BME280;43102;52.014;-0.680;2023-04-26T05:10:00;100923;;;7.23;63.42
57250;BME280;43102;52.014;-0.680;2023-04-26T05:11:00;100923;;;7.23;63.42
57250;BME280;43102;52.014;-0.680;2023-04-26T05:12:00;100928;;;7.23;63.24
57250;BME280;43102;52.014;-0.680;2023-04-26T05:13:00;100928;;;7.23;63.24
57250;BME280;43102;52.014;-0.680;2023-04-26T05:14:00;100928;;;7.23;63.24
57250;BME280;43102;52.014;-0.680;2023-04-26T05:15:00;100928;;;7.23;63.24
57250;BME280;43102;52.014;-0.680;2023-04-26T05:16:00;100928;;;7.23;63.24
57250;BME280;43102;52.014;-0.680;2023-04-26T05:17:00;100926;;;7.31;63.06
57250;BME280;43102;52.014;-0.680;2023-04-26T05:18:00;100926;;;7.31;63.06
57250;BME280;43102;52.014;-0.680;2023-04-26T05:19:00;100926;;;7.31;63.06
57250;BME280;43102;52.014;-0.680;2023-04-26T05:20:00;100926;;;7.31;63.06
57250;BME280;43102;52.014;-0.680;2023-04-26T05:21:00;100926;;;7.31;63.06
57250;BME280;43102;52.014;-0.680;2023-04-26T05:22:00;100924;;;7.35;63.34
57250;BME280;43102;52.014;-0.680;2023-04-26T05:23:00;100924;;;7.35;63.34
57250;BME280;43102;52.014;-0.680;2023-04-26T05:24:00;100924;;;7.35;63.34
57250;BME280;43102;52.014;-0.680;2023-04-26T05:25:00;100924;;;7.35;63.34
57250;BME280;43102;52.014;-0.680;2023-04-26T05:26:00;100924;;;7.35;63.34